Terminal Aerodrome Forecast
Issued by NWS

Current Version | Previous Version | Text Only | Print | Product List | Glossary On
Versions: 1 2 3 4 5 6 7 8 9 10 11 12 13 14 15 16 17 18 19 20 21 22 23 24 25 26 27 28 29 30 31 32 33 34
000
FTUS46 KLOX 060529
TAFLAX
TAF
KLAX 060529Z 0606/0712 28008KT P6SM OVC012
     FM060900 VRB03KT P6SM OVC015
     FM061600 27007KT P6SM OVC015
     FM062200 26012KT P6SM BKN020
     FM070300 26007KT P6SM OVC015
     FM070900 VRB03KT P6SM OVC015=

USA.gov is the U.S. government's official web portal to all federal, state and local government web resources and services.